KHDE/HDE METAR and TAF weather

Enter ICAO airport designator
Station Type Date Time Source
KHDE METAR 2022/11/30 10:15 UTC NOAA

KHDE 301015Z AUTO 27005KT 10SM CLR M12/M15 A3022 RMK AO2 T11171151


Station Type Date Time Source
KHDE Decoded METAR 2022/11/30 10:15 UTC NOAA

Brewster Field Airport, NE, United States (KHDE) 40-27N 099-20W
Nov 30, 2022 - 05:15 AM EST / 2022.11.30 1015 UTC
Wind: from the W (270 degrees) at 6 MPH (5 KT):0
Visibility: 10 mile(s):0
Sky conditions: clear
Temperature: 10.9 F (-11.7 C)
Windchill: 1 F (-17 C):1
Dew Point: 4.8 F (-15.1 C)
Relative Humidity: 75%
Pressure (altimeter): 30.22 in. Hg (1023 hPa)
ob: KHDE 301015Z AUTO 27005KT 10SM CLR M12/M15 A3022 RMK AO2 T11171151
cycle: 10

Station Type Date Time Source
KHDE TAF UTC NOAA

Error!

Example: see airport list